createdAt,value
2022-08-28T00:02:46.733Z,3.30
2022-08-28T00:07:48.881Z,4.88
2022-08-28T00:12:52.792Z,3.97
2022-08-28T00:17:55.161Z,4.90
2022-08-28T00:22:57.859Z,3.80
2022-08-28T00:28:05.203Z,4.43
2022-08-28T00:33:18.381Z,3.80
2022-08-28T00:38:21.944Z,3.90
2022-08-28T00:43:43.913Z,6.80
2022-08-28T00:48:46.279Z,3.88
2022-08-28T00:53:48.222Z,3.53
2022-08-28T00:58:52.136Z,3.75
2022-08-28T01:03:54.263Z,3.55
2022-08-28T01:08:56.173Z,4.80
2022-08-28T01:14:03.122Z,4.30
2022-08-28T01:19:10.482Z,4.78
2022-08-28T01:24:16.072Z,3.40
2022-08-28T01:29:18.401Z,3.90
2022-08-28T01:34:20.336Z,4.55
2022-08-28T01:39:24.398Z,3.95
2022-08-28T01:44:27.660Z,4.20
2022-08-28T01:49:29.558Z,4.20
2022-08-28T01:54:31.292Z,4.22
2022-08-28T01:59:33.491Z,4.15
2022-08-28T02:04:35.533Z,4.05
2022-08-28T02:09:37.377Z,3.80
2022-08-28T02:14:39.096Z,4.72
2022-08-28T02:19:40.872Z,3.60
2022-08-28T02:24:42.640Z,4.30
2022-08-28T02:29:44.397Z,3.50
2022-08-28T02:34:46.177Z,3.78
2022-08-28T02:39:47.847Z,3.78
2022-08-28T02:44:49.700Z,3.72
2022-08-28T02:49:51.555Z,3.80
2022-08-28T02:54:53.328Z,3.80
2022-08-28T02:59:55.027Z,3.28
2022-08-28T03:04:56.762Z,3.10
2022-08-28T03:09:58.512Z,3.80
2022-08-28T03:15:00.297Z,3.70
2022-08-28T03:20:02.320Z,3.42
2022-08-28T03:25:04.284Z,3.17
2022-08-28T03:30:07.966Z,3.40
2022-08-28T03:35:10.081Z,3.78
2022-08-28T03:40:12.819Z,4.10
2022-08-28T03:45:14.720Z,3.05
2022-08-28T03:50:17.445Z,3.80
2022-08-28T03:55:22.648Z,4.55
2022-08-28T04:00:24.361Z,5.05
2022-08-28T04:05:26.363Z,4.32
2022-08-28T04:10:29.301Z,4.68
2022-08-28T04:15:31.042Z,3.47
2022-08-28T04:20:32.867Z,4.88
2022-08-28T04:25:34.630Z,4.05
2022-08-28T04:30:36.562Z,4.32
2022-08-28T04:35:41.031Z,4.35
2022-08-28T04:40:43.294Z,3.35
2022-08-28T04:45:46.007Z,4.40
2022-08-28T04:50:49.367Z,5.20
2022-08-28T04:55:55.052Z,3.97
2022-08-28T05:00:57.023Z,3.67
2022-08-28T05:05:58.916Z,4.45
2022-08-28T05:11:33.240Z,4.43
2022-08-28T05:16:43.174Z,3.60
2022-08-28T05:21:44.957Z,4.53
2022-08-28T05:26:48.302Z,4.50
2022-08-28T05:31:50.638Z,4.88
2022-08-28T05:36:52.454Z,3.78
2022-08-28T05:41:55.289Z,3.38
2022-08-28T05:46:57.100Z,3.67
2022-08-28T05:51:58.879Z,5.03
2022-08-28T05:57:00.591Z,5.65
2022-08-28T06:02:05.737Z,3.10
2022-08-28T06:07:08.100Z,3.42
2022-08-28T06:12:10.020Z,3.33
2022-08-28T06:17:13.962Z,3.25
2022-08-28T06:22:15.688Z,3.63
2022-08-28T06:27:17.887Z,3.65
2022-08-28T06:32:19.688Z,3.53
2022-08-28T06:37:21.552Z,3.67
2022-08-28T06:42:23.249Z,3.20
2022-08-28T06:47:25.077Z,2.90
2022-08-28T06:52:26.764Z,2.63
2022-08-28T06:57:28.495Z,3.80
2022-08-28T07:02:30.190Z,2.60
2022-08-28T07:07:32.756Z,2.28
2022-08-28T07:12:34.786Z,2.30
2022-08-28T07:17:36.500Z,2.70
2022-08-28T07:22:41.016Z,2.58
2022-08-28T07:27:43.785Z,2.58
2022-08-28T07:32:50.461Z,2.20
2022-08-28T07:37:59.012Z,2.15
2022-08-28T07:43:19.320Z,2.60
2022-08-28T07:48:21.348Z,2.05
2022-08-28T07:53:23.830Z,3.55
2022-08-28T07:58:26.250Z,2.72
2022-08-28T08:03:30.255Z,2.42
2022-08-28T08:08:33.960Z,1.98
2022-08-28T08:13:37.138Z,2.15
2022-08-28T08:18:41.336Z,2.78
2022-08-28T08:23:43.231Z,2.42
2022-08-28T08:28:45.700Z,1.88
2022-08-28T08:33:50.282Z,2.45
2022-08-28T08:38:59.797Z,1.88
2022-08-28T08:44:42.360Z,2.20
2022-08-28T08:49:57.720Z,1.75
2022-08-28T08:55:08.634Z,1.73
2022-08-28T09:00:19.979Z,1.60
2022-08-28T09:05:30.345Z,2.50
2022-08-28T09:10:40.907Z,2.47
2022-08-28T09:15:50.056Z,1.80
2022-08-28T09:20:57.021Z,1.75
2022-08-28T09:26:09.138Z,1.90
2022-08-28T09:31:37.481Z,1.20
2022-08-28T09:36:39.203Z,2.10
2022-08-28T09:42:24.785Z,2.28
2022-08-28T09:47:55.851Z,1.55
2022-08-28T09:53:17.436Z,1.58
2022-08-28T09:58:20.470Z,1.38
2022-08-28T10:03:30.718Z,1.67
2022-08-28T10:08:56.411Z,1.35
2022-08-28T10:14:23.978Z,1.55
2022-08-28T10:19:44.261Z,1.70
2022-08-28T10:25:17.555Z,2.17
2022-08-28T10:30:22.983Z,1.50
2022-08-28T10:35:37.658Z,1.40
2022-08-28T10:40:46.561Z,1.58
2022-08-28T10:45:51.747Z,1.65
2022-08-28T10:50:58.406Z,1.42
2022-08-28T10:56:07.722Z,1.42
2022-08-28T11:01:14.339Z,1.67
2022-08-28T11:06:22.310Z,1.52
2022-08-28T11:11:46.554Z,1.33
2022-08-28T11:16:50.121Z,1.40
2022-08-28T11:22:20.486Z,1.58
2022-08-28T11:27:35.347Z,2.92
2022-08-28T11:32:46.862Z,1.40
2022-08-28T11:37:51.735Z,1.80
2022-08-28T11:43:17.029Z,1.48
2022-08-28T11:48:34.544Z,1.55
2022-08-28T11:53:51.649Z,1.55
2022-08-28T11:59:02.471Z,1.45
2022-08-28T12:04:13.417Z,1.52
2022-08-28T12:09:51.073Z,1.95
2022-08-28T12:14:59.997Z,1.35
2022-08-28T12:20:43.274Z,1.52
2022-08-28T12:25:46.225Z,2.20
2022-08-28T12:31:08.498Z,1.65
2022-08-28T12:36:15.793Z,1.27
2022-08-28T12:41:18.858Z,1.88
2022-08-28T12:46:32.456Z,1.85
2022-08-28T12:51:37.876Z,1.20
2022-08-28T12:56:39.635Z,1.42
2022-08-28T13:01:43.424Z,1.38
2022-08-28T13:06:45.261Z,1.50
2022-08-28T13:11:49.839Z,1.58
2022-08-28T13:16:51.619Z,1.13
2022-08-28T13:22:00.601Z,1.30
2022-08-28T13:27:06.884Z,1.88
2022-08-28T13:32:15.349Z,1.20
2022-08-28T13:37:57.247Z,1.52
2022-08-28T13:43:03.344Z,1.17
2022-08-28T13:48:05.871Z,1.63
2022-08-28T13:53:07.675Z,2.28
2022-08-28T13:58:09.491Z,1.30
2022-08-28T14:03:29.903Z,1.40
2022-08-28T14:08:31.632Z,1.40
2022-08-28T14:13:34.056Z,1.40
2022-08-28T14:18:36.087Z,1.50
2022-08-28T14:23:38.021Z,1.85
2022-08-28T14:28:40.912Z,1.30
2022-08-28T14:33:45.343Z,1.77
2022-08-28T14:38:50.934Z,1.17
2022-08-28T14:43:58.604Z,1.60
2022-08-28T14:49:07.066Z,1.73
2022-08-28T14:54:11.268Z,1.60
2022-08-28T14:59:19.494Z,1.77
2022-08-28T15:04:26.086Z,1.60
2022-08-28T15:09:28.267Z,1.80
2022-08-28T15:14:30.490Z,1.85
2022-08-28T15:19:32.785Z,1.67
2022-08-28T15:24:36.025Z,3.10
2022-08-28T15:29:37.887Z,1.90
2022-08-28T15:34:40.815Z,1.70
2022-08-28T15:40:01.349Z,2.15
2022-08-28T15:45:05.141Z,2.15
2022-08-28T15:50:07.384Z,6.75
2022-08-28T15:55:13.232Z,1.73
2022-08-28T16:00:16.770Z,1.80
2022-08-28T16:05:18.717Z,2.45
2022-08-28T16:10:20.834Z,1.65
2022-08-28T16:15:22.860Z,1.58
2022-08-28T16:20:25.350Z,1.98
2022-08-28T16:25:28.450Z,2.08
2022-08-28T16:30:30.594Z,1.50
2022-08-28T16:35:32.841Z,1.70
2022-08-28T16:40:45.245Z,1.90
2022-08-28T16:45:47.668Z,1.65
2022-08-28T16:50:49.522Z,1.80
2022-08-28T16:55:51.333Z,1.92
2022-08-28T17:00:54.967Z,2.08
2022-08-28T17:05:59.959Z,1.88
2022-08-28T17:11:02.127Z,1.90
2022-08-28T17:16:04.903Z,1.80
2022-08-28T17:21:25.063Z,2.67
2022-08-28T17:26:26.937Z,1.58
2022-08-28T17:31:30.110Z,1.80
2022-08-28T17:36:34.318Z,1.98
2022-08-28T17:41:37.631Z,3.10
2022-08-28T17:46:39.867Z,2.00
2022-08-28T17:51:44.313Z,2.40
2022-08-28T17:56:46.477Z,1.48
2022-08-28T18:01:49.940Z,1.90
2022-08-28T18:06:54.672Z,1.50
2022-08-28T18:11:57.184Z,2.60
2022-08-28T18:16:59.209Z,3.42
2022-08-28T18:22:01.484Z,2.53
2022-08-28T18:27:04.517Z,1.95
2022-08-28T18:32:07.630Z,2.03
2022-08-28T18:37:09.849Z,1.40
2022-08-28T18:42:11.725Z,1.58
2022-08-28T18:47:13.996Z,1.70
2022-08-28T18:52:16.015Z,2.08
2022-08-28T18:57:21.767Z,1.63
2022-08-28T19:02:27.628Z,1.75
2022-08-28T19:07:29.605Z,1.92
2022-08-28T19:12:31.389Z,2.20
2022-08-28T19:17:36.071Z,1.60
2022-08-28T19:22:38.917Z,1.88
2022-08-28T19:27:41.466Z,1.98
2022-08-28T19:32:45.560Z,1.73
2022-08-28T19:37:47.686Z,1.70
2022-08-28T19:42:52.624Z,2.53
2022-08-28T19:47:54.624Z,2.80
2022-08-28T19:52:56.680Z,1.63
2022-08-28T19:57:59.229Z,2.75
2022-08-28T20:03:01.350Z,1.42
2022-08-28T20:08:03.789Z,1.50
2022-08-28T20:13:05.689Z,2.75
2022-08-28T20:18:08.120Z,1.70
2022-08-28T20:23:11.408Z,1.63
2022-08-28T20:28:13.639Z,1.50
2022-08-28T20:33:15.450Z,2.90
2022-08-28T20:38:17.254Z,1.70
2022-08-28T20:43:19.274Z,2.97
2022-08-28T20:48:21.137Z,1.80
2022-08-28T20:53:36.929Z,2.60
2022-08-28T20:58:40.369Z,1.88
2022-08-28T21:03:42.141Z,2.75
2022-08-28T21:08:43.902Z,2.25
2022-08-28T21:13:45.661Z,1.98
2022-08-28T21:19:14.107Z,1.98
2022-08-28T21:24:13.733Z,1.83
2022-08-28T21:29:16.812Z,2.22
2022-08-28T21:34:20.646Z,2.60
2022-08-28T21:39:22.445Z,2.22
2022-08-28T21:44:25.107Z,2.00
2022-08-28T21:49:26.949Z,1.98
2022-08-28T21:54:28.872Z,1.65
2022-08-28T21:59:37.596Z,2.60
2022-08-28T22:04:40.856Z,1.85
2022-08-28T22:09:42.748Z,3.03
2022-08-28T22:14:44.462Z,1.90
2022-08-28T22:19:46.813Z,1.90
2022-08-28T22:24:48.733Z,2.00
2022-08-28T22:29:50.582Z,1.85
2022-08-28T22:34:54.621Z,1.70
2022-08-28T22:39:56.522Z,2.00
2022-08-28T22:44:58.361Z,2.53
2022-08-28T22:50:00.333Z,1.65
2022-08-28T22:55:08.938Z,1.88
2022-08-28T23:00:15.590Z,2.00
2022-08-28T23:05:17.818Z,2.17
2022-08-28T23:10:19.647Z,2.13
2022-08-28T23:15:22.550Z,2.15
2022-08-28T23:20:24.521Z,2.70
2022-08-28T23:25:27.569Z,2.65
2022-08-28T23:30:30.486Z,4.10
2022-08-28T23:35:32.170Z,1.83
2022-08-28T23:40:35.002Z,2.03
2022-08-28T23:45:39.945Z,2.03
2022-08-28T23:50:42.488Z,2.00
2022-08-28T23:55:44.290Z,1.77
